Time;durP1;ratioP1;P1;durP2;ratioP2;P2;SDS_P1;SDS_P2;PMS_P1;PMS_P2;Temp;Humidity;BMP_temperature;BMP_pressure;BME280_temperature;BME280_humidity;BME280_pressure;Samples;Min_cycle;Max_cycle;Signal;HPM_P1;HPM_P2
2022/11/27 00:00:09;;;;;;;136.05;72.97;;;;;;;9.06;74.45;102536.00;4907976;29;20059;-82
2022/11/27 00:02:36;;;;;;;126.40;70.25;;;;;;;8.28;73.95;102407.59;4911001;29;20376;-81
2022/11/27 00:05:06;;;;;;;132.40;70.35;;;;;;;9.11;73.96;102541.06;4906759;29;20408;-83
2022/11/27 00:07:36;;;;;;;139.70;72.85;;;;;;;8.69;74.06;102482.28;4911062;29;20058;-80
2022/11/27 00:10:05;;;;;;;134.27;72.57;;;;;;;8.64;74.01;102475.47;4891057;29;20449;-79
2022/11/27 00:12:32;;;;;;;124.82;67.22;;;;;;;8.77;73.59;102514.50;4909121;29;20048;-81
2022/11/27 00:15:02;;;;;;;128.15;69.88;;;;;;;8.92;74.12;102546.44;4891241;29;20432;-81
2022/11/27 00:17:31;;;;;;;130.88;70.07;;;;;;;8.26;74.34;102442.06;4895145;29;20051;-81
2022/11/27 00:19:58;;;;;;;126.70;68.43;;;;;;;8.84;74.12;102553.94;4892240;29;20190;-82
2022/11/27 00:22:28;;;;;;;131.77;69.60;;;;;;;8.64;74.32;102524.03;4909887;29;20224;-83
2022/11/27 00:24:55;;;;;;;130.23;67.75;;;;;;;8.72;75.50;102545.66;4892027;29;20056;-83
2022/11/27 00:27:31;;;;;;;124.10;67.95;;;;;;;8.51;74.81;102504.38;4890982;29;20052;-81
2022/11/27 00:30:04;;;;;;;123.28;67.22;;;;;;;8.69;75.27;102540.53;4894675;29;20386;-82
2022/11/27 00:32:32;;;;;;;126.25;70.25;;;;;;;8.59;75.28;102525.16;4892091;29;20054;-80
2022/11/27 00:35:00;;;;;;;118.45;66.93;;;;;;;8.70;75.18;102546.69;4908786;29;20426;-81
2022/11/27 00:37:28;;;;;;;120.38;67.03;;;;;;;7.97;75.08;102432.91;4910817;29;20052;-82
2022/11/27 00:39:58;;;;;;;119.03;65.75;;;;;;;8.57;75.03;102525.25;4910265;29;20055;-83
2022/11/27 00:42:25;;;;;;;125.15;67.78;;;;;;;8.49;75.30;102524.75;4893102;29;20135;-83
2022/11/27 00:44:52;;;;;;;117.00;65.70;;;;;;;8.58;75.46;102537.56;4911100;29;20600;-82
2022/11/27 00:47:21;;;;;;;126.15;67.70;;;;;;;8.66;75.37;102550.41;4903259;29;20067;-81
2022/11/27 00:49:48;;;;;;;121.00;65.85;;;;;;;8.65;74.53;102554.84;4891240;29;20079;-83
2022/11/27 00:52:15;;;;;;;123.45;68.93;;;;;;;8.59;74.90;102533.97;4894484;29;20067;-81
2022/11/27 00:54:42;;;;;;;125.05;66.35;;;;;;;8.35;74.58;102502.47;4907970;29;20063;-81
2022/11/27 00:57:14;;;;;;;110.45;62.03;;;;;;;8.38;75.23;102493.50;4910765;28;20063;-81
2022/11/27 00:59:51;;;;;;;112.40;64.65;;;;;;;8.38;75.03;102490.03;4872074;29;20567;-81
2022/11/27 01:02:18;;;;;;;118.20;63.83;;;;;;;8.72;74.04;102543.00;4890631;29;20259;-82
2022/11/27 01:04:49;;;;;;;119.53;62.85;;;;;;;8.38;74.13;102487.38;4873676;29;20051;-82
2022/11/27 01:07:16;;;;;;;108.82;62.70;;;;;;;8.61;74.35;102537.38;4889325;29;20056;-82
2022/11/27 01:09:42;;;;;;;109.88;61.70;;;;;;;8.67;74.38;102534.44;4890191;29;20207;-82
2022/11/27 01:12:16;;;;;;;109.85;61.92;;;;;;;8.73;74.15;102531.47;4890612;29;20294;-82
2022/11/27 01:14:43;;;;;;;109.13;62.35;;;;;;;8.66;74.42;102519.47;4874775;29;20712;-80
2022/11/27 01:17:10;;;;;;;113.63;61.53;;;;;;;8.68;73.90;102511.47;4872118;29;20424;-81
2022/11/27 01:19:36;;;;;;;111.85;62.13;;;;;;;8.63;74.43;102532.03;4891227;29;20116;-81
2022/11/27 01:22:05;;;;;;;110.70;63.35;;;;;;;8.74;73.82;102527.91;4885601;29;20060;-81
2022/11/27 01:24:32;;;;;;;111.00;62.03;;;;;;;8.61;74.08;102508.25;4883377;29;20052;-82
2022/11/27 01:26:59;;;;;;;126.55;66.50;;;;;;;8.21;74.17;102457.31;4894053;29;20052;-80
2022/11/27 01:29:34;;;;;;;107.85;58.85;;;;;;;8.73;74.38;102542.06;4910457;29;20071;-82
2022/11/27 01:32:01;;;;;;;109.07;60.13;;;;;;;8.85;73.48;102540.59;4893431;29;20443;-79
2022/11/27 01:34:33;;;;;;;106.38;58.83;;;;;;;8.92;73.03;102541.16;4911374;29;20136;-80
2022/11/27 01:37:02;;;;;;;104.93;59.15;;;;;;;8.70;72.96;102514.91;4907372;29;20072;-80
2022/11/27 01:39:37;;;;;;;113.35;61.20;;;;;;;8.93;72.70;102548.16;4895570;29;20138;-80
2022/11/27 01:42:03;;;;;;;102.22;58.38;;;;;;;8.84;72.70;102549.50;4900163;29;20107;-79
2022/11/27 01:44:39;;;;;;;107.18;58.03;;;;;;;8.86;72.67;102546.75;4919153;29;20329;-79
2022/11/27 01:47:20;;;;;;;107.18;56.25;;;;;;;8.70;72.43;102523.69;4907003;29;20055;-81
2022/11/27 01:50:04;;;;;;;103.13;55.38;;;;;;;8.78;72.66;102537.41;4906276;29;20051;-79
2022/11/27 01:52:40;;;;;;;99.50;57.22;;;;;;;8.60;73.15;102503.06;4910310;29;20079;-81
2022/11/27 01:55:17;;;;;;;104.80;55.15;;;;;;;8.75;72.89;102534.06;4891276;29;20055;-79
2022/11/27 01:57:52;;;;;;;105.70;56.80;;;;;;;8.40;73.08;102469.63;4878165;29;20058;-79
2022/11/27 02:00:24;;;;;;;95.28;55.85;;;;;;;8.65;73.18;102523.06;4908228;29;20535;-79
2022/11/27 02:02:52;;;;;;;95.78;53.42;;;;;;;8.46;73.62;102501.09;4897897;29;20177;-80
2022/11/27 02:05:24;;;;;;;99.15;55.85;;;;;;;8.42;73.57;102497.72;4877135;29;20689;-81
2022/11/27 02:07:55;;;;;;;105.32;55.63;;;;;;;8.66;72.97;102519.47;4878816;28;20060;-83
2022/11/27 02:10:52;;;;;;;95.20;55.50;;;;;;;8.61;73.18;102515.34;4873936;29;20526;-81
2022/11/27 02:13:32;;;;;;;98.53;54.40;;;;;;;8.61;73.17;102518.00;4849740;29;20758;-82
2022/11/27 02:16:24;;;;;;;102.47;53.92;;;;;;;8.66;73.53;102511.53;4879518;29;20352;-82
2022/11/27 02:19:03;;;;;;;97.90;52.92;;;;;;;8.58;73.05;102505.78;4867415;29;20063;-82
2022/11/27 02:21:55;;;;;;;91.78;53.00;;;;;;;8.45;73.32;102483.53;4862791;29;20150;-81
2022/11/27 02:24:32;;;;;;;106.40;55.30;;;;;;;8.45;72.98;102483.53;4857817;29;20058;-81
2022/11/27 02:27:36;;;;;;;91.95;51.92;;;;;;;8.21;72.94;102441.44;4859176;29;20423;-81
2022/11/27 02:30:08;;;;;;;87.32;50.75;;;;;;;8.42;73.13;102494.22;4858698;29;20055;-81
2022/11/27 02:32:49;;;;;;;99.82;53.58;;;;;;;8.23;72.77;102479.25;4857021;29;20563;-81
2022/11/27 02:35:36;;;;;;;96.55;53.03;;;;;;;8.41;73.17;102503.13;4875155;29;20719;-82
2022/11/27 02:38:19;;;;;;;95.45;52.63;;;;;;;8.39;73.27;102500.50;4875064;29;20063;-81
2022/11/27 02:41:01;;;;;;;88.18;52.45;;;;;;;8.42;73.58;102512.75;4861797;29;20928;-82
2022/11/27 02:43:39;;;;;;;87.63;52.05;;;;;;;8.14;74.08;102469.97;4860277;29;20174;-82
2022/11/27 02:46:09;;;;;;;86.93;51.05;;;;;;;7.89;74.49;102428.00;4857452;29;20547;-81
2022/11/27 02:48:54;;;;;;;82.85;48.92;;;;;;;8.33;73.73;102496.38;4874734;29;20594;-81
2022/11/27 02:51:30;;;;;;;95.30;49.83;;;;;;;8.42;73.48;102510.13;4876166;29;20055;-80
2022/11/27 02:54:18;;;;;;;85.03;50.53;;;;;;;8.43;73.25;102496.81;4876534;29;20095;-80
2022/11/27 02:56:54;;;;;;;90.25;49.17;;;;;;;7.79;73.39;102402.94;4860305;29;20516;-80
2022/11/27 02:59:25;;;;;;;87.47;51.05;;;;;;;8.38;72.90;102504.09;4848056;29;20716;-83
2022/11/27 03:01:57;;;;;;;;;;;;;;;8.38;73.16;102508.53;4866728;29;20055;-83
2022/11/27 03:04:41;;;;;;;91.03;50.75;;;;;;;8.37;73.08;102505.00;4871630;29;20358;-81
2022/11/27 03:07:15;;;;;;;96.25;50.65;;;;;;;7.99;73.99;102446.91;4863672;29;20436;-82
2022/11/27 03:09:49;;;;;;;90.47;52.83;;;;;;;7.30;74.12;102328.63;4876687;29;20063;-82
2022/11/27 03:12:21;;;;;;;86.72;48.42;;;;;;;8.12;73.78;102481.56;4870488;29;20048;-82
2022/11/27 03:14:50;;;;;;;93.45;48.22;;;;;;;8.24;74.10;102493.34;4853243;29;20059;-82
2022/11/27 03:17:44;;;;;;;82.55;46.70;;;;;;;8.27;73.92;102495.81;4855184;29;20103;-83
2022/11/27 03:20:19;;;;;;;89.68;51.40;;;;;;;8.27;73.72;102499.31;4848575;29;20157;-82
2022/11/27 03:22:46;;;;;;;92.57;48.92;;;;;;;8.24;73.94;102491.53;4875641;29;20284;-82
2022/11/27 03:25:17;;;;;;;80.70;47.83;;;;;;;8.24;73.88;102491.53;4870809;29;20083;-81
2022/11/27 03:27:57;;;;;;;79.88;45.83;;;;;;;7.90;74.52;102442.91;4850818;29;20056;-82
2022/11/27 03:30:26;;;;;;;81.82;48.72;;;;;;;8.07;74.77;102479.13;4840613;29;20397;-82
2022/11/27 03:33:01;;;;;;;89.57;49.45;;;;;;;8.11;75.17;102480.72;4874942;29;20237;-81
2022/11/27 03:35:33;;;;;;;87.63;48.17;;;;;;;7.80;74.68;102422.28;4869727;29;20147;-82
2022/11/27 03:38:03;;;;;;;84.10;49.58;;;;;;;7.96;75.43;102459.41;4853442;29;20329;-81
2022/11/27 03:41:03;;;;;;;96.30;51.30;;;;;;;7.85;75.39;102446.72;4864040;29;20276;-80
2022/11/27 03:43:45;;;;;;;84.22;49.67;;;;;;;7.91;74.92;102457.88;4850936;29;20824;-82
2022/11/27 03:46:28;;;;;;;86.13;49.75;;;;;;;7.98;75.37;102469.00;4858463;29;20482;-82
2022/11/27 03:49:28;;;;;;;86.32;49.50;;;;;;;7.97;75.45;102471.72;4859563;29;20058;-81
2022/11/27 03:52:27;;;;;;;87.18;48.75;;;;;;;7.89;75.17;102462.38;4868699;29;20426;-81
2022/11/27 03:55:23;;;;;;;90.45;50.15;;;;;;;7.90;75.51;102460.56;4884071;29;20682;-81
2022/11/27 03:58:08;;;;;;;76.47;46.57;;;;;;;7.51;75.67;102397.25;4853483;29;20664;-81
2022/11/27 04:00:44;;;;;;;82.07;48.65;;;;;;;7.85;75.19;102459.94;4837103;29;20743;-81
2022/11/27 04:03:12;;;;;;;86.50;49.95;;;;;;;7.52;75.77;102401.59;4835283;29;20071;-83
2022/11/27 04:05:44;;;;;;;83.32;46.45;;;;;;;7.86;74.94;102465.16;4829430;29;20225;-81
2022/11/27 04:08:13;;;;;;;83.20;49.03;;;;;;;7.89;75.41;102480.88;4838290;29;20683;-81
2022/11/27 04:10:42;;;;;;;80.30;48.63;;;;;;;7.91;75.41;102478.16;4852772;29;20528;-81
2022/11/27 04:13:13;;;;;;;84.07;49.15;;;;;;;7.52;74.89;102406.88;4851627;29;20448;-81
2022/11/27 04:15:44;;;;;;;89.63;49.70;;;;;;;7.73;74.59;102445.53;4857654;29;20484;-82
2022/11/27 04:18:20;;;;;;;97.32;50.78;;;;;;;7.99;74.76;102486.59;4855508;29;20096;-81
2022/11/27 04:20:52;;;;;;;84.75;50.97;;;;;;;7.76;74.52;102442.72;4837723;29;20295;-80
2022/11/27 04:23:19;;;;;;;89.88;50.17;;;;;;;7.80;74.42;102435.50;4858331;29;20608;-81
2022/11/27 04:25:47;;;;;;;77.22;46.30;;;;;;;7.79;73.78;102437.31;4853494;29;20074;-81
2022/11/27 04:28:19;;;;;;;84.38;48.53;;;;;;;7.89;74.47;102443.88;4858698;29;20087;-81
2022/11/27 04:30:58;;;;;;;78.93;47.35;;;;;;;8.04;73.24;102466.06;4855717;29;20058;-81
2022/11/27 04:33:26;;;;;;;77.90;46.80;;;;;;;8.03;73.56;102472.25;4858033;29;20147;-82
2022/11/27 04:35:56;;;;;;;88.20;49.47;;;;;;;7.23;74.17;102353.63;4848740;29;20335;-82
2022/11/27 04:38:30;;;;;;;84.25;47.35;;;;;;;7.93;74.81;102477.13;4854870;29;20258;-81
2022/11/27 04:40:58;;;;;;;86.30;46.83;;;;;;;7.84;75.00;102472.31;4866441;29;20134;-81
2022/11/27 04:43:28;;;;;;;80.38;48.33;;;;;;;7.65;74.92;102447.69;4881180;29;20533;-81
2022/11/27 04:45:59;;;;;;;80.18;46.97;;;;;;;7.57;74.95;102441.88;4864850;29;20122;-81
2022/11/27 04:48:29;;;;;;;83.53;48.03;;;;;;;7.61;75.21;102454.88;4873063;29;21105;-82
2022/11/27 04:51:04;;;;;;;78.43;46.35;;;;;;;7.56;75.45;102461.31;4877129;29;20962;-80
2022/11/27 04:53:35;;;;;;;80.93;46.33;;;;;;;7.66;75.13;102483.75;4864980;29;20539;-82
2022/11/27 04:56:05;;;;;;;79.82;48.15;;;;;;;7.59;74.95;102456.72;4854088;29;20122;-81
2022/11/27 04:58:38;;;;;;;89.55;49.22;;;;;;;7.59;75.03;102466.47;4869309;29;20076;-80
2022/11/27 05:01:15;;;;;;;83.47;47.97;;;;;;;7.51;75.24;102458.03;4863160;29;20468;-77
2022/11/27 05:03:42;;;;;;;77.20;46.97;;;;;;;7.26;74.37;102390.47;4849458;29;20351;-80
2022/11/27 05:06:16;;;;;;;78.97;45.67;;;;;;;7.66;74.16;102457.31;4845502;29;20254;-81
2022/11/27 05:08:46;;;;;;;77.03;46.42;;;;;;;7.70;73.99;102480.88;4866596;29;20059;-81
2022/11/27 05:11:17;;;;;;;80.45;47.25;;;;;;;7.02;74.15;102374.81;4870021;29;20067;-80
2022/11/27 05:14:13;;;;;;;77.63;45.50;;;;;;;7.68;74.82;102487.19;4877220;29;20048;-80
2022/11/27 05:16:52;;;;;;;74.70;46.15;;;;;;;7.30;74.23;102415.81;4841323;29;20603;-81
2022/11/27 05:19:24;;;;;;;77.72;45.58;;;;;;;7.76;73.67;102495.59;4838421;29;20056;-81
2022/11/27 05:21:55;;;;;;;77.32;45.30;;;;;;;7.71;74.51;102497.59;4846822;29;20067;-81
2022/11/27 05:24:30;;;;;;;74.88;45.45;;;;;;;7.60;73.79;102462.91;4838494;29;20865;-80
2022/11/27 05:26:59;;;;;;;78.38;43.03;;;;;;;6.19;73.75;102238.69;4855989;29;20798;-82
2022/11/27 05:29:26;;;;;;;77.95;44.25;;;;;;;7.68;74.51;102508.34;4872591;29;20059;-82
2022/11/27 05:31:56;;;;;;;79.28;44.63;;;;;;;7.34;74.50;102456.16;4848447;29;20057;-83
2022/11/27 05:34:25;;;;;;;72.43;44.80;;;;;;;7.52;74.70;102480.88;4865548;29;20155;-80
2022/11/27 05:36:54;;;;;;;71.70;44.47;;;;;;;7.32;74.88;102464.16;4862961;29;20216;-80
2022/11/27 05:39:25;;;;;;;73.03;42.67;;;;;;;7.37;75.14;102485.94;4865294;29;20108;-80
2022/11/27 05:41:54;;;;;;;68.78;42.75;;;;;;;7.47;75.43;102504.88;4870070;29;20557;-79
2022/11/27 05:44:21;;;;;;;73.25;42.38;;;;;;;7.22;75.63;102463.72;4863918;29;20230;-82
2022/11/27 05:46:52;;;;;;;75.20;43.33;;;;;;;7.09;75.58;102452.00;4873523;29;20668;-81
2022/11/27 05:49:19;;;;;;;73.60;43.90;;;;;;;7.25;75.26;102465.34;4880401;29;20511;-81
2022/11/27 05:51:52;;;;;;;72.35;41.90;;;;;;;7.08;75.42;102442.34;4876165;29;20526;-81
2022/11/27 05:54:21;;;;;;;72.40;43.28;;;;;;;7.32;75.58;102477.38;4878231;29;20590;-82
2022/11/27 05:56:55;;;;;;;71.55;43.45;;;;;;;6.88;75.54;102405.41;4883192;29;20154;-81
2022/11/27 05:59:29;;;;;;;72.32;42.42;;;;;;;7.26;75.84;102490.88;4862115;29;20064;-81
2022/11/27 06:02:11;;;;;;;67.22;41.22;;;;;;;7.23;75.70;102496.25;4842743;29;20179;-82
2022/11/27 06:04:47;;;;;;;71.97;43.45;;;;;;;7.15;75.96;102472.00;4839699;29;20060;-81
2022/11/27 06:07:14;;;;;;;65.82;40.55;;;;;;;7.19;75.92;102473.56;4843224;29;20059;-81
2022/11/27 06:09:43;;;;;;;69.50;41.65;;;;;;;7.30;75.47;102496.84;4846667;29;20283;-81
2022/11/27 06:12:17;;;;;;;70.15;40.95;;;;;;;6.94;75.48;102436.81;4841212;29;20657;-80
2022/11/27 06:14:53;;;;;;;72.15;40.80;;;;;;;7.08;75.70;102471.41;4847112;29;20056;-81
2022/11/27 06:17:27;;;;;;;63.47;38.90;;;;;;;7.12;75.69;102477.41;4846566;29;20091;-81
2022/11/27 06:19:53;;;;;;;65.78;40.55;;;;;;;7.18;75.52;102504.38;4842464;29;20403;-83
2022/11/27 06:22:23;;;;;;;65.90;38.53;;;;;;;6.35;75.94;102378.66;4832734;29;20923;-83
2022/11/27 06:24:55;;;;;;;68.68;41.42;;;;;;;6.91;75.80;102471.28;4856221;29;20055;-81
2022/11/27 06:27:32;;;;;;;70.43;42.05;;;;;;;7.15;76.17;102501.03;4856473;29;20301;-81
2022/11/27 06:29:59;;;;;;;;;;;;;;;7.21;75.70;102524.56;4887428;29;20166;-82
2022/11/27 06:32:25;;;;;;;63.75;38.55;;;;;;;6.72;76.37;102442.19;4916242;29;20553;-79
2022/11/27 06:34:55;;;;;;;71.55;41.47;;;;;;;7.01;75.38;102513.06;4902986;29;20394;-81
2022/11/27 06:37:22;;;;;;;67.90;38.78;;;;;;;7.09;75.98;102511.88;4914631;29;20155;-80
2022/11/27 06:39:51;;;;;;;67.68;42.28;;;;;;;7.06;74.85;102516.38;4913283;29;20104;-81
2022/11/27 06:42:18;;;;;;;66.78;38.05;;;;;;;7.18;74.98;102532.59;4926138;28;20055;-80
2022/11/27 06:44:46;;;;;;;75.05;40.40;;;;;;;7.11;74.53;102517.94;4895905;29;20050;-82
2022/11/27 06:47:16;;;;;;;73.25;39.25;;;;;;;6.79;74.38;102459.47;4896506;29;20039;-81
2022/11/27 06:49:42;;;;;;;63.65;41.00;;;;;;;7.32;74.48;102554.00;4918572;28;20409;-82
2022/11/27 06:52:11;;;;;;;62.60;38.72;;;;;;;7.18;73.54;102519.38;4908383;29;20558;-80
2022/11/27 06:54:38;;;;;;;71.70;39.75;;;;;;;6.94;73.69;102485.22;4917167;29;20058;-81
2022/11/27 06:57:05;;;;;;;67.40;39.03;;;;;;;7.01;73.38;102496.34;4896714;29;20048;-80
2022/11/27 06:59:32;;;;;;;71.25;40.88;;;;;;;7.35;73.83;102567.06;4896592;29;20412;-80
2022/11/27 07:02:00;;;;;;;65.60;39.95;;;;;;;7.16;74.02;102537.09;4893052;29;20689;-81
2022/11/27 07:04:27;;;;;;;65.65;38.67;;;;;;;7.07;73.74;102514.59;4914925;29;20056;-81
2022/11/27 07:06:54;;;;;;;66.25;38.85;;;;;;;7.31;73.71;102556.72;4914709;29;20580;-80
2022/11/27 07:09:20;;;;;;;71.97;40.40;;;;;;;7.12;73.71;102533.72;4917245;29;20063;-81
2022/11/27 07:11:53;;;;;;;62.25;38.67;;;;;;;7.31;73.35;102565.50;4901067;29;20059;-81
2022/11/27 07:14:20;;;;;;;67.78;40.42;;;;;;;7.20;73.60;102549.25;4898704;29;20108;-80
2022/11/27 07:16:47;;;;;;;69.07;39.22;;;;;;;7.37;73.52;102573.13;4898548;29;20142;-81
2022/11/27 07:19:17;;;;;;;74.43;40.70;;;;;;;7.40;73.17;102567.75;4899780;29;20056;-80
2022/11/27 07:21:43;;;;;;;63.85;38.15;;;;;;;7.32;73.03;102558.41;4914724;29;20056;-79
2022/11/27 07:24:10;;;;;;;67.28;38.58;;;;;;;7.36;72.51;102554.72;4896737;29;20081;-79
2022/11/27 07:26:37;;;;;;;66.72;40.55;;;;;;;7.52;73.08;102582.16;4898137;29;20059;-81
2022/11/27 07:29:04;;;;;;;71.50;40.08;;;;;;;7.44;72.72;102564.00;4897147;29;20313;-80
2022/11/27 07:31:31;;;;;;;67.40;40.63;;;;;;;7.52;72.37;102581.31;4902138;29;20123;-79
2022/11/27 07:33:59;;;;;;;70.53;42.60;;;;;;;7.40;72.92;102573.03;4916026;29;20170;-79
2022/11/27 07:36:28;;;;;;;64.97;39.70;;;;;;;6.95;73.35;102497.50;4911491;29;20591;-79
2022/11/27 07:38:58;;;;;;;65.47;40.80;;;;;;;7.24;73.56;102546.41;4899103;29;20055;-79
2022/11/27 07:41:25;;;;;;;64.22;39.42;;;;;;;7.33;73.22;102553.06;4899985;29;20060;-81
2022/11/27 07:43:59;;;;;;;69.38;39.47;;;;;;;7.52;73.50;102574.25;4898540;29;20460;-79
2022/11/27 07:46:29;;;;;;;59.03;37.75;;;;;;;7.35;73.17;102538.00;4914165;29;20146;-80
2022/11/27 07:48:56;;;;;;;64.10;39.13;;;;;;;7.45;73.14;102546.38;4899292;29;20062;-81
2022/11/27 07:51:24;;;;;;;64.18;39.53;;;;;;;7.55;72.70;102565.31;4899990;29;20047;-79
2022/11/27 07:53:51;;;;;;;62.90;37.53;;;;;;;7.72;73.08;102573.38;4916493;29;20119;-81
2022/11/27 07:56:20;;;;;;;58.08;36.50;;;;;;;7.64;72.60;102562.25;4917718;29;20570;-80
2022/11/27 07:58:49;;;;;;;61.85;37.72;;;;;;;7.68;72.51;102569.97;4895971;29;20302;-80
2022/11/27 08:01:18;;;;;;;61.25;38.42;;;;;;;7.77;72.38;102566.06;4900308;29;20935;-81
2022/11/27 08:03:45;;;;;;;62.60;38.55;;;;;;;7.81;72.33;102562.34;4900491;29;20499;-81
2022/11/27 08:06:24;;;;;;;67.63;37.08;;;;;;;7.80;71.68;102539.47;4899030;29;20530;-80
2022/11/27 08:08:54;;;;;;;56.63;34.92;;;;;;;7.76;71.53;102513.25;4902183;29;20575;-79
2022/11/27 08:11:28;;;;;;;63.05;37.67;;;;;;;7.84;71.41;102538.44;4900280;29;20474;-80
2022/11/27 08:13:59;;;;;;;57.50;37.15;;;;;;;7.68;71.14;102501.25;4904667;29;20059;-81
2022/11/27 08:16:30;;;;;;;64.18;35.72;;;;;;;8.12;70.73;102548.53;4905656;29;20468;-81
2022/11/27 08:18:58;;;;;;;57.95;37.40;;;;;;;7.65;71.36;102489.97;4918636;29;20051;-79
2022/11/27 08:21:26;;;;;;;67.75;38.05;;;;;;;8.05;70.84;102554.19;4919429;29;20412;-80
2022/11/27 08:23:56;;;;;;;65.80;38.75;;;;;;;7.97;70.51;102543.13;4916457;29;20154;-79
2022/11/27 08:26:27;;;;;;;60.28;37.85;;;;;;;8.06;71.26;102558.59;4917063;29;20055;-79
2022/11/27 08:28:55;;;;;;;57.75;37.10;;;;;;;8.15;71.50;102568.69;4906540;29;20106;-80
2022/11/27 08:31:22;;;;;;;63.55;38.13;;;;;;;8.22;70.79;102567.47;4916482;29;20051;-81
2022/11/27 08:33:49;;;;;;;58.35;38.70;;;;;;;8.00;71.28;102521.81;4906566;29;20255;-79
2022/11/27 08:36:16;;;;;;;58.65;36.00;;;;;;;8.22;71.35;102567.47;4905523;29;20142;-81
2022/11/27 08:38:45;;;;;;;65.65;37.63;;;;;;;8.23;70.85;102545.41;4918730;29;20060;-81
2022/11/27 08:41:13;;;;;;;56.20;37.00;;;;;;;8.26;70.04;102547.03;4903678;29;20488;-80
2022/11/27 08:43:41;;;;;;;58.85;36.50;;;;;;;8.31;70.26;102564.41;4920247;29;20199;-79
2022/11/27 08:46:08;;;;;;;59.85;36.38;;;;;;;6.93;69.83;102319.78;4919354;29;20525;-79
2022/11/27 08:48:37;;;;;;;61.08;38.10;;;;;;;8.36;69.98;102569.47;4919589;29;20813;-78
2022/11/27 08:51:10;;;;;;;59.08;37.20;;;;;;;8.10;70.28;102525.75;4919770;29;20633;-78
2022/11/27 08:53:39;;;;;;;60.95;37.75;;;;;;;8.37;69.76;102568.53;4901261;29;20046;-79
2022/11/27 08:56:08;;;;;;;67.65;39.95;;;;;;;7.82;69.90;102490.03;4897947;29;20126;-81
2022/11/27 08:58:39;;;;;;;65.40;38.25;;;;;;;8.16;70.02;102511.38;4910860;29;20056;-81
2022/11/27 09:01:21;;;;;;;65.03;38.40;;;;;;;8.40;70.75;102564.91;4883185;29;20052;-81
2022/11/27 09:03:48;;;;;;;66.57;39.20;;;;;;;8.53;70.17;102566.03;4903039;29;20166;-78
2022/11/27 09:06:20;;;;;;;66.43;37.45;;;;;;;8.70;68.97;102558.13;4917205;29;20048;-79
2022/11/27 09:09:03;;;;;;;63.50;38.00;;;;;;;8.52;69.99;102544.00;4920463;29;20416;-80
2022/11/27 09:11:38;;;;;;;67.00;39.85;;;;;;;8.57;70.27;102562.31;4917770;29;20541;-80
2022/11/27 09:14:05;;;;;;;64.93;40.03;;;;;;;8.48;70.31;102537.16;4919228;29;20444;-79
2022/11/27 09:16:42;;;;;;;65.60;39.42;;;;;;;7.75;70.58;102408.44;4917294;29;20244;-81
2022/11/27 09:19:12;;;;;;;70.47;40.83;;;;;;;8.50;70.25;102523.84;4915095;29;20517;-81
2022/11/27 09:21:39;;;;;;;63.03;40.08;;;;;;;8.78;70.41;102563.03;4901980;29;20585;-80
2022/11/27 09:24:06;;;;;;;68.07;40.83;;;;;;;8.45;69.88;102467.63;4901313;29;20086;-80
2022/11/27 09:26:33;;;;;;;62.95;42.58;;;;;;;8.38;69.70;102463.56;4902206;29;20500;-78
2022/11/27 09:28:59;;;;;;;70.45;42.58;;;;;;;8.75;70.55;102518.16;4903272;29;20078;-80
2022/11/27 09:31:26;;;;;;;69.15;41.75;;;;;;;8.44;69.26;102428.84;4916080;29;20070;-79
2022/11/27 09:33:53;;;;;;;64.25;42.03;;;;;;;8.44;69.44;102423.56;4917271;29;20048;-82
2022/11/27 09:36:23;;;;;;;72.10;43.33;;;;;;;9.20;68.86;102541.44;4914135;29;20056;-81
2022/11/27 09:38:50;;;;;;;64.53;41.33;;;;;;;9.17;69.22;102525.72;4899675;29;20048;-79
2022/11/27 09:41:49;;;;;;;67.35;43.72;;;;;;;9.40;68.90;102553.66;4901196;29;20063;-80
2022/11/27 09:44:38;;;;;;;66.45;42.58;;;;;;;9.33;69.76;102528.41;4902947;29;20138;-81
2022/11/27 09:47:10;;;;;;;69.78;43.42;;;;;;;9.11;69.61;102488.94;4917873;29;20079;-81
2022/11/27 09:49:44;;;;;;;;;;;;;;;9.50;68.62;102546.06;4916079;29;20063;-80
2022/11/27 09:52:19;;;;;;;70.60;42.53;;;;;;;9.26;69.17;102507.59;4932447;28;19923;-78
2022/11/27 09:54:56;;;;;;;72.43;45.15;;;;;;;9.10;69.38;102466.03;4933576;29;20172;-79
2022/11/27 09:57:36;;;;;;;74.32;44.47;;;;;;;9.55;69.24;102524.59;4899479;29;20248;-80
2022/11/27 10:00:27;;;;;;;67.65;42.53;;;;;;;9.35;69.17;102493.88;4903682;29;20059;-80
2022/11/27 10:02:54;;;;;;;68.43;42.90;;;;;;;9.22;68.49;102453.91;4902440;29;20182;-80
2022/11/27 10:05:51;;;;;;;74.20;45.22;;;;;;;9.72;69.06;102537.78;4902352;29;20158;-79
2022/11/27 10:08:32;;;;;;;68.53;44.50;;;;;;;9.62;68.59;102512.72;4915594;29;20408;-80
2022/11/27 10:11:11;;;;;;;67.35;44.25;;;;;;;9.40;67.70;102457.38;4901225;29;20163;-80
2022/11/27 10:13:54;;;;;;;62.83;40.33;;;;;;;9.91;67.98;102537.66;4915133;29;20231;-79
2022/11/27 10:16:43;;;;;;;68.53;42.47;;;;;;;9.88;67.33;102527.22;4917521;29;20190;-79
2022/11/27 10:19:39;;;;;;;74.90;44.03;;;;;;;9.98;67.37;102523.09;4916752;29;20483;-79
2022/11/27 10:22:14;;;;;;;74.03;45.75;;;;;;;9.61;67.68;102457.97;4892210;29;20047;-79
2022/11/27 10:25:20;;;;;;;70.13;45.15;;;;;;;9.92;68.46;102518.13;4913784;29;20048;-79
2022/11/27 10:28:20;;;;;;;75.68;45.95;;;;;;;9.63;67.58;102443.66;4891967;29;20687;-80
2022/11/27 10:30:57;;;;;;;71.25;42.85;;;;;;;9.95;67.96;102496.75;4917241;29;20123;-81
2022/11/27 10:33:42;;;;;;;73.07;44.75;;;;;;;9.91;67.79;102478.44;4915644;29;20059;-79
2022/11/27 10:36:38;;;;;;;65.25;41.80;;;;;;;10.11;67.93;102511.78;4899164;29;20062;-81
2022/11/27 10:39:41;;;;;;;71.63;44.22;;;;;;;9.97;68.14;102488.69;4899236;29;20436;-80
2022/11/27 10:42:35;;;;;;;70.78;45.65;;;;;;;9.74;68.11;102434.28;4894962;29;20472;-80
2022/11/27 10:45:06;;;;;;;72.10;45.25;;;;;;;10.34;67.62;102498.09;4914907;29;20281;-80
2022/11/27 10:47:39;;;;;;;70.20;44.05;;;;;;;9.83;67.21;102375.41;4898796;29;20274;-79
2022/11/27 10:50:13;;;;;;;72.07;43.95;;;;;;;10.41;66.70;102434.88;4900287;29;20665;-78
2022/11/27 10:53:06;;;;;;;72.00;44.60;;;;;;;10.85;64.91;102448.16;4900503;29;20098;-78
2022/11/27 10:55:57;;;;;;;70.97;43.30;;;;;;;11.16;63.68;102467.53;4898740;29;20089;-81
2022/11/27 10:58:35;;;;;;;59.80;38.70;;;;;;;11.10;63.01;102439.53;4911369;29;20059;-82
2022/11/27 11:01:07;;;;;;;61.05;39.67;;;;;;;11.46;62.83;102463.91;4897921;29;20052;-80
2022/11/27 11:03:35;;;;;;;56.65;37.03;;;;;;;11.20;62.95;102423.84;4889585;29;20064;-79
2022/11/27 11:06:24;;;;;;;59.83;39.30;;;;;;;11.31;63.04;102441.78;4880633;29;20056;-79
2022/11/27 11:09:13;;;;;;;64.40;39.28;;;;;;;11.28;63.48;102448.16;4895840;29;20478;-81
2022/11/27 11:11:40;;;;;;;62.50;38.67;;;;;;;11.04;63.76;102423.09;4896141;29;20074;-80
2022/11/27 11:14:25;;;;;;;64.28;39.83;;;;;;;11.12;63.54;102440.28;4893352;29;20047;-80
2022/11/27 11:16:55;;;;;;;;;;;;;;;11.05;63.55;102435.44;4892220;29;20844;-80
2022/11/27 11:19:34;;;;;;;56.13;37.95;;;;;;;11.08;64.11;102441.41;4897634;29;19933;-81
2022/11/27 11:22:12;;;;;;;58.58;38.30;;;;;;;11.12;64.45;102444.75;4896022;29;20090;-79
2022/11/27 11:24:46;;;;;;;64.05;38.25;;;;;;;11.10;64.74;102438.69;4895979;29;21144;-79
2022/11/27 11:27:23;;;;;;;68.63;40.33;;;;;;;11.05;64.16;102424.81;4894778;29;20333;-80
2022/11/27 11:30:06;;;;;;;59.13;36.58;;;;;;;11.16;64.23;102437.44;4894744;29;20623;-79
2022/11/27 11:32:39;;;;;;;65.60;39.38;;;;;;;11.07;63.99;102436.22;4900385;29;20560;-78
2022/11/27 11:35:23;;;;;;;57.50;39.28;;;;;;;10.68;64.93;102377.47;4910809;29;20058;-79
2022/11/27 11:37:52;;;;;;;52.13;34.40;;;;;;;11.01;64.66;102417.97;4895873;29;20060;-80
2022/11/27 11:40:19;;;;;;;54.50;35.90;;;;;;;11.07;64.61;102417.63;4899379;29;20063;-80
2022/11/27 11:43:04;;;;;;;58.47;39.38;;;;;;;11.02;64.12;102403.72;4898419;29;20174;-78
2022/11/27 11:45:33;;;;;;;61.90;39.28;;;;;;;11.00;65.09;102403.00;4898643;29;20619;-83